createdAt,value
2018-09-19T00:00:35.165Z,15.08
2018-09-19T00:03:02.846Z,14.73
2018-09-19T00:05:30.491Z,20.63
2018-09-19T00:07:58.168Z,15.57
2018-09-19T00:10:25.840Z,15.30
2018-09-19T00:12:53.487Z,14.38
2018-09-19T00:15:21.139Z,17.30
2018-09-19T00:17:48.750Z,19.50
2018-09-19T00:20:16.510Z,14.93
2018-09-19T00:22:44.168Z,17.20
2018-09-19T00:25:11.741Z,15.67
2018-09-19T00:27:39.465Z,23.07
2018-09-19T00:30:07.157Z,13.98
2018-09-19T00:32:34.837Z,16.40
2018-09-19T00:35:02.528Z,16.53
2018-09-19T00:37:30.136Z,18.30
2018-09-19T00:39:57.741Z,14.37
2018-09-19T00:42:25.421Z,15.25
2018-09-19T00:44:53.094Z,16.20
2018-09-19T00:47:20.719Z,16.60
2018-09-19T00:49:48.363Z,19.67
2018-09-19T00:52:16.030Z,17.30
2018-09-19T00:54:43.717Z,15.83
2018-09-19T00:57:11.421Z,16.10
2018-09-19T00:59:39.107Z,15.78
2018-09-19T01:02:06.871Z,16.17
2018-09-19T01:04:34.479Z,39.95
2018-09-19T01:07:02.208Z,12.90
2018-09-19T01:09:30.076Z,15.87
2018-09-19T01:11:57.726Z,16.97
2018-09-19T01:14:25.427Z,16.93
2018-09-19T01:16:53.072Z,16.45
2018-09-19T01:19:20.735Z,15.30
2018-09-19T01:21:48.437Z,18.12
2018-09-19T01:24:16.170Z,20.20
2018-09-19T01:26:43.862Z,16.32
2018-09-19T01:29:11.502Z,16.13
2018-09-19T01:31:39.329Z,14.50
2018-09-19T01:34:07.152Z,18.23
2018-09-19T01:36:34.783Z,17.23
2018-09-19T01:39:02.736Z,15.20
2018-09-19T01:41:30.380Z,14.77
2018-09-19T01:43:57.972Z,20.92
2018-09-19T01:46:25.595Z,19.23
2018-09-19T01:48:53.256Z,14.70
2018-09-19T01:51:20.967Z,16.40
2018-09-19T01:53:48.672Z,18.48
2018-09-19T01:56:16.362Z,14.13
2018-09-19T01:58:44.032Z,21.50
2018-09-19T02:01:11.637Z,15.53
2018-09-19T02:03:39.320Z,15.70
2018-09-19T02:06:06.977Z,18.23
2018-09-19T02:08:34.923Z,20.60
2018-09-19T02:11:02.615Z,16.70
2018-09-19T02:13:30.282Z,16.50
2018-09-19T02:15:57.879Z,16.23
2018-09-19T02:18:25.547Z,17.20
2018-09-19T02:20:53.183Z,23.13
2018-09-19T02:23:20.849Z,16.33
2018-09-19T02:25:48.426Z,18.80
2018-09-19T02:28:16.055Z,15.07
2018-09-19T02:30:43.748Z,19.02
2018-09-19T02:33:11.372Z,20.62
2018-09-19T02:35:39.115Z,16.73
2018-09-19T02:38:06.752Z,16.30
2018-09-19T02:40:34.457Z,21.90
2018-09-19T02:43:02.094Z,14.68
2018-09-19T02:45:29.777Z,18.90
2018-09-19T02:47:57.420Z,17.63
2018-09-19T02:50:25.067Z,25.53
2018-09-19T02:52:53.698Z,17.27
2018-09-19T02:55:21.498Z,20.15
2018-09-19T02:57:49.123Z,17.50
2018-09-19T03:00:16.870Z,17.03
2018-09-19T03:02:44.682Z,18.70
2018-09-19T03:05:12.482Z,18.40
2018-09-19T03:07:40.200Z,18.37
2018-09-19T03:10:07.940Z,18.07
2018-09-19T03:12:35.852Z,20.30
2018-09-19T03:15:03.883Z,16.93
2018-09-19T03:17:31.666Z,19.83
2018-09-19T03:19:59.313Z,18.60
2018-09-19T03:22:27.078Z,22.07
2018-09-19T03:24:54.732Z,19.00
2018-09-19T03:27:22.442Z,20.77
2018-09-19T03:29:50.070Z,19.15
2018-09-19T03:32:17.740Z,19.77
2018-09-19T03:34:45.456Z,20.13
2018-09-19T03:37:13.182Z,18.00
2018-09-19T03:39:40.844Z,18.50
2018-09-19T03:42:08.603Z,28.60
2018-09-19T03:44:36.294Z,16.85
2018-09-19T03:47:03.857Z,26.77
2018-09-19T03:49:31.535Z,24.90
2018-09-19T03:51:59.273Z,19.47
2018-09-19T03:54:26.897Z,19.23
2018-09-19T03:56:54.611Z,21.63
2018-09-19T03:59:22.358Z,23.07
2018-09-19T04:01:50.317Z,18.70
2018-09-19T04:04:18.167Z,19.95
2018-09-19T04:06:45.839Z,23.60
2018-09-19T04:09:14.327Z,17.37
2018-09-19T04:11:41.977Z,22.70
2018-09-19T04:14:10.772Z,18.87
2018-09-19T04:16:38.775Z,27.80
2018-09-19T04:19:06.462Z,24.00
2018-09-19T04:21:34.169Z,22.50
2018-09-19T04:24:01.769Z,19.67
2018-09-19T04:26:29.452Z,20.10
2018-09-19T04:28:57.162Z,21.10
2018-09-19T04:31:24.940Z,25.33
2018-09-19T04:33:52.643Z,20.60
2018-09-19T04:36:20.308Z,20.97
2018-09-19T04:38:48.046Z,20.70
2018-09-19T04:41:15.703Z,19.12
2018-09-19T04:43:43.338Z,19.53
2018-09-19T04:46:10.988Z,18.93
2018-09-19T04:48:38.864Z,21.80
2018-09-19T04:51:06.928Z,17.97
2018-09-19T04:53:34.574Z,21.47
2018-09-19T04:56:02.234Z,18.33
2018-09-19T04:58:30.020Z,23.18
2018-09-19T05:00:57.790Z,22.23
2018-09-19T05:03:25.492Z,20.23
2018-09-19T05:05:53.190Z,18.42
2018-09-19T05:08:20.825Z,18.30
2018-09-19T05:10:48.578Z,23.30
2018-09-19T05:13:16.199Z,16.17
2018-09-19T05:15:43.866Z,19.93
2018-09-19T05:18:11.545Z,18.55
2018-09-19T05:20:39.141Z,18.40
2018-09-19T05:23:06.953Z,20.80
2018-09-19T05:25:34.668Z,24.60
2018-09-19T05:28:02.379Z,21.07
2018-09-19T05:30:30.085Z,20.13
2018-09-19T05:32:57.671Z,27.00
2018-09-19T05:35:25.293Z,21.13
2018-09-19T05:37:52.968Z,28.52
2018-09-19T05:40:20.723Z,25.40
2018-09-19T05:42:48.309Z,22.73
2018-09-19T05:45:16.027Z,29.37
2018-09-19T05:47:43.676Z,23.10
2018-09-19T05:50:11.411Z,21.45
2018-09-19T05:52:38.958Z,22.22
2018-09-19T05:55:06.664Z,22.50
2018-09-19T05:57:34.350Z,24.83
2018-09-19T06:00:02.039Z,22.07
2018-09-19T06:02:30.049Z,26.87
2018-09-19T06:04:57.783Z,17.47
2018-09-19T06:07:25.418Z,20.50
2018-09-19T06:09:53.037Z,28.73
2018-09-19T06:12:20.710Z,20.53
2018-09-19T06:14:48.387Z,20.93
2018-09-19T06:17:16.124Z,19.97
2018-09-19T06:19:43.835Z,25.07
2018-09-19T06:22:11.599Z,25.48
2018-09-19T06:24:39.381Z,26.70
2018-09-19T06:27:07.131Z,25.77
2018-09-19T06:29:34.820Z,23.23
2018-09-19T06:32:02.566Z,19.53
2018-09-19T06:34:30.210Z,25.57
2018-09-19T06:36:58.028Z,25.70
2018-09-19T06:39:25.669Z,20.35
2018-09-19T06:41:53.369Z,32.83
2018-09-19T06:44:21.061Z,30.37
2018-09-19T06:46:48.979Z,26.33
2018-09-19T06:49:16.629Z,38.17
2018-09-19T06:51:44.267Z,41.80
2018-09-19T06:54:11.983Z,36.47
2018-09-19T06:56:39.699Z,31.40
2018-09-19T06:59:07.447Z,29.33
2018-09-19T07:01:35.120Z,32.13
2018-09-19T07:04:02.764Z,24.98
2018-09-19T07:06:30.573Z,25.77
2018-09-19T07:08:58.211Z,24.50
2018-09-19T07:11:25.884Z,30.93
2018-09-19T07:13:53.689Z,28.80
2018-09-19T07:16:21.507Z,26.10
2018-09-19T07:18:49.207Z,17.40
2018-09-19T07:21:16.995Z,19.23
2018-09-19T07:23:44.740Z,22.55
2018-09-19T07:26:12.389Z,32.03
2018-09-19T07:28:40.217Z,29.80
2018-09-19T07:31:07.974Z,25.87
2018-09-19T07:33:35.682Z,25.83
2018-09-19T07:36:03.371Z,27.20
2018-09-19T07:38:31.037Z,19.03
2018-09-19T07:40:58.799Z,23.40
2018-09-19T07:43:26.456Z,20.57
2018-09-19T07:45:54.174Z,20.13
2018-09-19T07:48:21.906Z,20.57
2018-09-19T07:50:49.676Z,21.30
2018-09-19T07:53:17.479Z,13.27
2018-09-19T07:55:45.258Z,13.73
2018-09-19T07:58:12.948Z,21.60
2018-09-19T08:00:40.725Z,22.13
2018-09-19T08:03:08.387Z,24.97
2018-09-19T08:05:36.153Z,17.62
2018-09-19T08:08:03.959Z,18.42
2018-09-19T08:10:31.726Z,14.85
2018-09-19T08:12:59.367Z,11.27
2018-09-19T08:15:27.039Z,15.33
2018-09-19T08:17:54.700Z,14.10
2018-09-19T08:20:22.437Z,15.38
2018-09-19T08:22:50.137Z,17.55
2018-09-19T08:25:18.184Z,15.30
2018-09-19T08:27:45.994Z,19.40
2018-09-19T08:30:13.705Z,14.43
2018-09-19T08:32:41.393Z,24.23
2018-09-19T08:35:09.042Z,15.10
2018-09-19T08:37:36.727Z,14.37
2018-09-19T08:40:04.787Z,12.88
2018-09-19T08:42:32.467Z,16.47
2018-09-19T08:45:00.210Z,11.80
2018-09-19T08:47:28.062Z,12.55
2018-09-19T08:49:55.797Z,13.05
2018-09-19T08:52:31.214Z,18.20
2018-09-19T08:54:58.974Z,13.47
2018-09-19T08:57:26.664Z,11.43
2018-09-19T08:59:54.309Z,11.90
2018-09-19T09:02:21.988Z,14.73
2018-09-19T09:04:49.660Z,24.47
2018-09-19T09:07:17.278Z,28.30
2018-09-19T09:09:44.983Z,13.93
2018-09-19T09:12:12.753Z,26.35
2018-09-19T09:14:40.418Z,18.53
2018-09-19T09:17:08.170Z,17.20
2018-09-19T09:19:35.968Z,27.10
2018-09-19T09:22:03.747Z,23.13
2018-09-19T09:24:31.441Z,15.87
2018-09-19T09:26:59.389Z,17.07
2018-09-19T09:29:27.119Z,17.53
2018-09-19T09:31:54.809Z,15.90
2018-09-19T09:34:22.619Z,12.13
2018-09-19T09:36:50.592Z,21.67
2018-09-19T09:39:19.235Z,15.00
2018-09-19T09:41:46.981Z,12.60
2018-09-19T09:44:14.706Z,14.33
2018-09-19T09:46:42.447Z,19.17
2018-09-19T09:49:10.235Z,16.90
2018-09-19T09:51:37.963Z,15.40
2018-09-19T09:54:05.725Z,11.60
2018-09-19T09:56:33.537Z,10.90
2018-09-19T09:59:01.444Z,20.20
2018-09-19T10:01:29.682Z,14.27
2018-09-19T10:03:57.616Z,18.07
2018-09-19T10:06:25.545Z,14.13
2018-09-19T10:08:53.224Z,12.77
2018-09-19T10:11:20.906Z,16.97
2018-09-19T10:13:48.670Z,24.10
2018-09-19T10:16:16.363Z,13.43
2018-09-19T10:18:44.006Z,18.37
2018-09-19T10:21:12.041Z,12.05
2018-09-19T10:23:39.662Z,14.45
2018-09-19T10:26:07.575Z,18.53
2018-09-19T10:28:35.299Z,11.25
2018-09-19T10:31:03.113Z,18.03
2018-09-19T10:33:30.772Z,11.23
2018-09-19T10:35:58.423Z,19.10
2018-09-19T10:38:26.139Z,14.73
2018-09-19T10:40:53.753Z,14.93
2018-09-19T10:43:21.361Z,15.33
2018-09-19T10:45:49.049Z,19.73
2018-09-19T10:48:16.757Z,11.75
2018-09-19T10:50:44.391Z,20.70
2018-09-19T10:53:12.093Z,17.63
2018-09-19T10:55:39.851Z,12.83
2018-09-19T10:58:07.487Z,21.20
2018-09-19T11:00:35.101Z,12.63
2018-09-19T11:03:02.810Z,14.17
2018-09-19T11:05:30.486Z,15.03
2018-09-19T11:07:58.211Z,16.43
2018-09-19T11:10:25.952Z,13.43
2018-09-19T11:12:53.763Z,24.60
2018-09-19T11:15:21.406Z,16.00
2018-09-19T11:17:49.060Z,18.00
2018-09-19T11:20:16.875Z,17.15
2018-09-19T11:22:44.543Z,16.37
2018-09-19T11:25:12.260Z,16.63
2018-09-19T11:27:40.005Z,19.80
2018-09-19T11:30:07.861Z,18.73
2018-09-19T11:32:35.555Z,15.00
2018-09-19T11:35:03.322Z,18.57
2018-09-19T11:37:31.103Z,14.98
2018-09-19T11:39:58.811Z,12.23
2018-09-19T11:42:26.555Z,18.47
2018-09-19T11:44:54.706Z,15.80
2018-09-19T11:47:22.400Z,14.13
2018-09-19T11:49:50.132Z,11.33
2018-09-19T11:52:17.837Z,10.90
2018-09-19T11:54:45.516Z,13.33
2018-09-19T11:57:13.234Z,9.77
2018-09-19T11:59:41.018Z,8.88
2018-09-19T12:02:08.676Z,10.00
2018-09-19T12:04:36.643Z,16.77
2018-09-19T12:07:04.411Z,9.57
2018-09-19T12:09:32.144Z,8.25
2018-09-19T12:12:00.217Z,11.93
2018-09-19T12:14:27.965Z,10.80
2018-09-19T12:17:01.244Z,11.03
2018-09-19T12:19:29.065Z,10.03
2018-09-19T12:21:56.728Z,7.93
2018-09-19T12:24:24.389Z,8.10
2018-09-19T12:26:52.210Z,7.80
2018-09-19T12:29:19.844Z,14.07
2018-09-19T12:31:47.542Z,14.30
2018-09-19T12:34:15.255Z,8.13
2018-09-19T12:36:42.995Z,8.23
2018-09-19T12:39:11.319Z,13.78
2018-09-19T12:41:39.594Z,6.67
2018-09-19T12:44:07.971Z,13.25
2018-09-19T12:46:35.886Z,7.67
2018-09-19T12:49:03.577Z,7.93
2018-09-19T12:51:31.373Z,10.50
2018-09-19T12:53:59.237Z,8.15
2018-09-19T12:56:27.055Z,11.08
2018-09-19T12:58:54.953Z,14.18
2018-09-19T13:01:22.993Z,16.02
2018-09-19T13:03:50.719Z,7.80
2018-09-19T13:06:18.476Z,13.05
2018-09-19T13:08:46.297Z,9.98
2018-09-19T13:11:13.815Z,8.23
2018-09-19T13:13:41.490Z,8.83
2018-09-19T13:16:09.163Z,11.50
2018-09-19T13:18:36.899Z,11.08
2018-09-19T13:21:04.550Z,11.95
2018-09-19T13:23:32.224Z,11.00
2018-09-19T13:25:59.879Z,10.67
2018-09-19T13:28:27.527Z,15.93
2018-09-19T13:30:55.233Z,12.68
2018-09-19T13:33:23.083Z,10.00
2018-09-19T13:35:50.757Z,10.13
2018-09-19T13:38:18.419Z,10.82
2018-09-19T13:40:46.089Z,12.13
2018-09-19T13:43:13.793Z,9.80
2018-09-19T13:45:41.473Z,16.53
2018-09-19T13:48:09.395Z,9.40
2018-09-19T13:51:48.138Z,9.03
2018-09-19T13:54:15.820Z,11.97
2018-09-19T13:56:43.571Z,13.43
2018-09-19T13:59:11.419Z,12.45
2018-09-19T14:01:39.253Z,11.33
2018-09-19T14:04:06.927Z,12.20
2018-09-19T14:06:34.743Z,8.20
2018-09-19T14:09:02.486Z,8.90
2018-09-19T14:11:30.148Z,13.40
2018-09-19T14:13:57.852Z,10.10
2018-09-19T14:16:25.646Z,6.72
2018-09-19T14:18:53.295Z,8.80
2018-09-19T14:21:20.965Z,8.63
2018-09-19T14:23:48.686Z,10.80
2018-09-19T14:26:16.471Z,7.30
2018-09-19T14:28:44.171Z,14.17
2018-09-19T14:31:11.885Z,9.20
2018-09-19T14:33:39.678Z,10.25
2018-09-19T14:36:07.317Z,9.53
2018-09-19T14:38:34.958Z,7.92
2018-09-19T14:41:02.614Z,10.08
2018-09-19T14:43:30.256Z,8.30
2018-09-19T14:45:57.958Z,8.93
2018-09-19T14:48:25.628Z,5.70
2018-09-19T14:50:53.280Z,13.10
2018-09-19T14:53:20.937Z,5.40
2018-09-19T14:55:48.542Z,5.47
2018-09-19T14:58:16.154Z,9.07
2018-09-19T15:00:43.878Z,7.00
2018-09-19T15:03:11.673Z,7.73
2018-09-19T15:05:39.328Z,5.67
2018-09-19T15:08:07.107Z,5.62
2018-09-19T15:10:34.830Z,8.40
2018-09-19T15:13:02.440Z,10.72
2018-09-19T15:15:31.240Z,6.00
2018-09-19T15:17:58.940Z,6.20
2018-09-19T15:20:27.639Z,5.40
2018-09-19T15:22:55.278Z,7.13
2018-09-19T15:25:22.974Z,7.30
2018-09-19T15:27:50.578Z,13.58
2018-09-19T15:30:18.874Z,9.83
2018-09-19T15:32:46.610Z,9.97
2018-09-19T15:35:14.322Z,8.98
2018-09-19T15:37:41.941Z,7.80
2018-09-19T15:40:09.583Z,7.37
2018-09-19T15:42:37.281Z,5.87
2018-09-19T15:45:05.149Z,11.40
2018-09-19T15:47:32.921Z,6.63
2018-09-19T15:50:00.597Z,9.30
2018-09-19T15:52:28.180Z,10.90
2018-09-19T15:54:55.806Z,8.40
2018-09-19T15:57:23.465Z,8.63
2018-09-19T15:59:51.196Z,10.58
2018-09-19T16:02:18.962Z,10.50
2018-09-19T16:04:46.662Z,11.50
2018-09-19T16:07:14.540Z,15.08
2018-09-19T16:09:42.195Z,14.03
2018-09-19T16:12:09.830Z,17.67
2018-09-19T16:14:37.496Z,23.27
2018-09-19T16:17:05.931Z,11.47
2018-09-19T16:19:33.623Z,9.55
2018-09-19T16:22:01.312Z,13.50
2018-09-19T16:24:29.004Z,21.00
2018-09-19T16:26:56.778Z,17.23
2018-09-19T16:29:24.360Z,11.07
2018-09-19T16:31:52.047Z,16.10
2018-09-19T16:34:19.674Z,16.57
2018-09-19T16:36:47.334Z,18.13
2018-09-19T16:39:14.993Z,14.63
2018-09-19T16:41:42.800Z,14.07
2018-09-19T16:44:10.700Z,21.10
2018-09-19T16:46:38.440Z,24.30
2018-09-19T16:49:06.894Z,18.43
2018-09-19T16:51:34.538Z,15.13
2018-09-19T16:54:02.202Z,15.13
2018-09-19T16:56:30.269Z,16.37
2018-09-19T16:58:58.285Z,15.10
2018-09-19T17:01:26.530Z,16.73
2018-09-19T17:03:54.168Z,19.00
2018-09-19T17:06:21.928Z,17.12
2018-09-19T17:08:49.716Z,19.87
2018-09-19T17:11:17.432Z,22.35
2018-09-19T17:13:45.700Z,23.17
2018-09-19T17:16:13.747Z,27.40
2018-09-19T17:18:41.561Z,14.97
2018-09-19T17:21:09.295Z,19.40
2018-09-19T17:23:37.093Z,14.18
2018-09-19T17:26:05.165Z,22.37
2018-09-19T17:28:34.136Z,26.70
2018-09-19T17:31:01.923Z,17.20
2018-09-19T17:33:29.835Z,18.30
2018-09-19T17:35:57.526Z,17.17
2018-09-19T17:38:25.293Z,26.82
2018-09-19T17:40:53.261Z,23.90
2018-09-19T17:43:21.143Z,27.27
2018-09-19T17:45:48.814Z,24.77
2018-09-19T17:48:17.672Z,15.70
2018-09-19T17:50:45.471Z,25.43
2018-09-19T17:53:13.268Z,29.77
2018-09-19T17:58:20.311Z,22.23
2018-09-19T18:00:48.064Z,16.10
2018-09-19T18:03:17.075Z,13.97
2018-09-19T18:05:44.990Z,16.80
2018-09-19T18:08:13.329Z,18.57
2018-09-19T18:10:41.154Z,13.77
2018-09-19T18:13:09.165Z,15.57
2018-09-19T18:15:38.029Z,19.60
2018-09-19T18:18:06.235Z,19.47
2018-09-19T18:20:33.985Z,17.60
2018-09-19T18:23:02.233Z,13.53
2018-09-19T18:25:30.117Z,14.73
2018-09-19T18:27:58.011Z,16.20
2018-09-19T18:30:25.742Z,14.33
2018-09-19T18:32:53.438Z,10.37
2018-09-19T18:35:21.172Z,11.25
2018-09-19T18:37:49.044Z,15.03
2018-09-19T18:40:16.912Z,24.15
2018-09-19T18:42:44.924Z,11.25
2018-09-19T18:45:12.676Z,11.97
2018-09-19T18:47:40.415Z,14.18
2018-09-19T18:50:08.390Z,19.00
2018-09-19T18:52:36.268Z,12.40
2018-09-19T18:55:04.393Z,9.53
2018-09-19T18:57:32.172Z,14.55
2018-09-19T19:00:00.248Z,18.45
2018-09-19T19:02:28.320Z,15.25
2018-09-19T19:04:56.306Z,15.23
2018-09-19T19:07:24.506Z,11.10
2018-09-19T19:09:52.534Z,11.90
2018-09-19T19:12:20.456Z,13.27
2018-09-19T19:14:48.330Z,12.07
2018-09-19T19:17:16.279Z,10.47
2018-09-19T19:19:44.210Z,14.67
2018-09-19T19:22:12.168Z,13.83
2018-09-19T19:24:40.084Z,12.33
2018-09-19T19:27:08.512Z,15.30
2018-09-19T19:29:36.329Z,8.87
2018-09-19T19:32:04.180Z,11.03
2018-09-19T19:34:32.018Z,9.23
2018-09-19T19:36:59.937Z,8.87
2018-09-19T19:39:27.740Z,9.00
2018-09-19T19:41:55.534Z,8.87
2018-09-19T19:44:23.624Z,13.80
2018-09-19T19:46:51.474Z,7.57
2018-09-19T19:49:19.284Z,7.33
2018-09-19T19:51:47.065Z,8.20
2018-09-19T19:56:53.501Z,12.90
2018-09-19T19:59:21.335Z,14.10
2018-09-19T20:01:49.083Z,9.57
2018-09-19T20:04:17.007Z,14.30
2018-09-19T20:06:44.752Z,10.63
2018-09-19T20:09:12.587Z,11.63
2018-09-19T20:11:40.420Z,10.13
2018-09-19T20:14:08.163Z,8.98
2018-09-19T20:16:36.073Z,10.48
2018-09-19T20:19:03.870Z,16.45
2018-09-19T20:21:32.037Z,8.67
2018-09-19T20:23:59.785Z,15.90
2018-09-19T20:26:27.815Z,7.87
2018-09-19T20:28:55.619Z,12.50
2018-09-19T20:31:23.463Z,11.35
2018-09-19T20:33:51.344Z,11.33
2018-09-19T20:36:19.042Z,7.58
2018-09-19T20:38:47.454Z,8.65
2018-09-19T20:41:15.203Z,7.50
2018-09-19T20:43:43.171Z,11.60
2018-09-19T20:46:11.008Z,7.13
2018-09-19T20:48:38.783Z,6.70
2018-09-19T20:51:06.639Z,6.70
2018-09-19T20:53:34.408Z,7.80
2018-09-19T20:56:02.301Z,9.00
2018-09-19T20:58:30.101Z,5.95
2018-09-19T21:00:57.916Z,6.25
2018-09-19T21:03:25.551Z,6.05
2018-09-19T21:05:53.296Z,4.87
2018-09-19T21:08:21.082Z,7.03
2018-09-19T21:10:48.822Z,7.13
2018-09-19T21:13:20.613Z,7.20
2018-09-19T21:15:48.305Z,7.27
2018-09-19T21:18:16.006Z,6.57
2018-09-19T21:20:43.733Z,14.13
2018-09-19T21:23:11.440Z,7.62
2018-09-19T21:25:39.329Z,6.70
2018-09-19T21:28:07.069Z,5.53
2018-09-19T21:30:34.751Z,6.37
2018-09-19T21:33:02.466Z,6.00
2018-09-19T21:35:30.193Z,8.07
2018-09-19T21:37:57.916Z,6.53
2018-09-19T21:40:25.816Z,8.98
2018-09-19T21:42:53.526Z,7.65
2018-09-19T21:45:21.363Z,7.40
2018-09-19T21:47:49.125Z,6.53
2018-09-19T21:50:16.779Z,7.17
2018-09-19T21:52:44.439Z,8.50
2018-09-19T21:55:12.174Z,5.50
2018-09-19T21:57:40.013Z,5.27
2018-09-19T22:00:08.617Z,4.20
2018-09-19T22:02:36.329Z,6.17
2018-09-19T22:05:04.068Z,3.87
2018-09-19T22:07:31.760Z,6.80
2018-09-19T22:09:59.509Z,4.57
2018-09-19T22:12:27.475Z,5.20
2018-09-19T22:14:55.315Z,7.10
2018-09-19T22:17:23.493Z,6.70
2018-09-19T22:19:51.225Z,7.62
2018-09-19T22:22:18.955Z,5.93
2018-09-19T22:24:46.612Z,10.43
2018-09-19T22:27:14.311Z,8.77
2018-09-19T22:29:42.135Z,5.00
2018-09-19T22:32:09.959Z,7.77
2018-09-19T22:34:37.641Z,4.33
2018-09-19T22:37:05.351Z,5.57
2018-09-19T22:39:33.052Z,6.00
2018-09-19T22:42:00.685Z,8.33
2018-09-19T22:44:28.308Z,6.90
2018-09-19T22:46:55.980Z,8.17
2018-09-19T22:49:23.666Z,6.60
2018-09-19T22:51:51.309Z,7.43
2018-09-19T22:54:19.001Z,8.45
2018-09-19T22:56:46.638Z,7.12
2018-09-19T22:59:14.333Z,5.20
2018-09-19T23:01:42.090Z,6.77
2018-09-19T23:04:09.725Z,6.50
2018-09-19T23:06:37.411Z,8.40
2018-09-19T23:09:06.752Z,13.73
2018-09-19T23:11:34.438Z,8.40
2018-09-19T23:14:02.171Z,8.30
2018-09-19T23:16:29.889Z,7.60
2018-09-19T23:18:57.513Z,7.00
2018-09-19T23:21:25.185Z,9.03
2018-09-19T23:23:52.843Z,8.30
2018-09-19T23:26:20.537Z,15.37
2018-09-19T23:28:48.271Z,12.45
2018-09-19T23:31:15.864Z,14.33
2018-09-19T23:33:43.527Z,13.03
2018-09-19T23:36:11.257Z,11.30
2018-09-19T23:38:38.889Z,12.57
2018-09-19T23:41:06.593Z,12.95
2018-09-19T23:43:34.342Z,13.20
2018-09-19T23:46:02.027Z,14.33
2018-09-19T23:48:29.785Z,12.23
2018-09-19T23:50:57.414Z,20.77
2018-09-19T23:53:25.111Z,11.13
2018-09-19T23:55:52.737Z,10.80
2018-09-19T23:58:20.389Z,10.60
